createdAt,value
2019-03-25T00:47:58.941Z,57.20
2019-03-25T00:50:31.737Z,57.20
2019-03-25T00:53:01.698Z,57.00
2019-03-25T00:55:31.708Z,56.70
2019-03-25T00:59:06.635Z,56.80
2019-03-25T03:12:22.886Z,61.80
2019-03-25T03:20:18.696Z,61.90
2019-03-25T03:57:48.619Z,63.20
2019-03-25T04:07:53.767Z,62.50
2019-03-25T04:10:24.422Z,62.90
2019-03-25T04:12:53.698Z,63.10
2019-03-25T04:49:09.603Z,64.70
2019-03-25T04:58:49.577Z,64.30
2019-03-25T05:01:20.985Z,64.00
2019-03-25T05:03:52.106Z,64.20
2019-03-25T05:06:22.601Z,64.20
2019-03-25T05:08:53.259Z,64.40
2019-03-25T05:11:30.650Z,63.30
2019-03-25T05:13:55.727Z,63.60
2019-03-25T05:16:27.594Z,63.10
2019-03-25T05:18:57.707Z,63.00
2019-03-25T05:21:28.507Z,63.30
2019-03-25T05:23:57.661Z,64.00
2019-03-25T05:26:28.663Z,63.80
2019-03-25T05:28:58.681Z,64.10
2019-03-25T05:31:29.615Z,63.80
2019-03-25T05:33:59.433Z,64.40
2019-03-25T05:36:29.684Z,63.80
2019-03-25T05:39:00.320Z,63.70
2019-03-25T05:41:56.665Z,64.10
2019-03-25T05:44:27.603Z,63.60
2019-03-25T05:46:56.797Z,64.10
2019-03-25T05:49:27.540Z,63.80
2019-03-25T05:51:56.796Z,64.20
2019-03-25T05:54:27.500Z,63.30
2019-03-25T05:57:02.488Z,63.10
2019-03-25T05:59:29.515Z,62.60
2019-03-25T06:01:58.661Z,62.10
2019-03-25T06:04:29.577Z,62.00
2019-03-25T06:06:58.639Z,62.10
2019-03-25T06:09:27.750Z,61.40
2019-03-25T06:11:58.563Z,60.40
2019-03-25T06:14:27.637Z,60.90
2019-03-25T06:16:58.634Z,60.20
2019-03-25T06:19:28.941Z,60.30
2019-03-25T06:21:58.727Z,60.40
2019-03-25T06:24:30.319Z,59.90
2019-03-25T06:27:00.571Z,59.60
2019-03-25T06:29:32.580Z,59.20
2019-03-25T06:32:02.569Z,59.00
2019-03-25T06:34:32.715Z,58.80
2019-03-25T06:37:03.744Z,59.20
2019-03-25T06:39:34.576Z,59.40
2019-03-25T06:42:04.660Z,59.10
2019-03-25T06:44:34.808Z,58.60
2019-03-25T06:47:05.563Z,58.80
2019-03-25T06:49:34.675Z,59.20
2019-03-25T06:52:05.545Z,58.50
2019-03-25T06:54:34.650Z,59.00
2019-03-25T06:57:05.522Z,58.20
2019-03-25T07:02:23.564Z,57.40
2019-03-25T07:04:52.672Z,57.80
2019-03-25T07:07:23.164Z,55.40
2019-03-25T07:09:52.616Z,55.90
2019-03-25T07:12:23.547Z,54.90
2019-03-25T07:14:53.644Z,54.00
2019-03-25T07:17:24.779Z,52.40
2019-03-25T07:19:55.495Z,52.60
2019-03-25T07:22:24.596Z,52.80
2019-03-25T07:24:54.590Z,51.60
2019-03-25T07:27:36.319Z,50.80
2019-03-25T07:30:00.500Z,50.90
2019-03-25T07:32:31.316Z,50.30
2019-03-25T07:35:03.199Z,50.50
2019-03-25T07:37:33.523Z,50.70
2019-03-25T07:40:03.666Z,49.80
2019-03-25T07:42:34.223Z,49.00
2019-03-25T07:45:03.594Z,48.30
2019-03-25T07:47:33.683Z,47.80
2019-03-25T07:50:03.627Z,48.90
2019-03-25T07:52:33.593Z,47.80
2019-03-25T07:55:04.523Z,47.80
2019-03-25T07:57:33.601Z,48.40
2019-03-25T08:00:13.203Z,46.80
2019-03-25T08:02:35.564Z,48.20
2019-03-25T08:05:06.524Z,47.10
2019-03-25T08:07:37.965Z,45.70
2019-03-25T08:10:09.523Z,45.40
2019-03-25T08:12:38.878Z,44.30
2019-03-25T08:15:10.206Z,43.50
2019-03-25T08:17:42.518Z,42.80
2019-03-25T08:20:13.549Z,41.10
2019-03-25T08:22:42.567Z,40.80
2019-03-25T08:25:12.563Z,39.60
2019-03-25T08:27:41.570Z,39.80
2019-03-25T08:30:16.589Z,41.30
2019-03-25T08:32:46.311Z,41.60
2019-03-25T08:35:17.536Z,42.50
2019-03-25T08:37:46.734Z,43.10
2019-03-25T08:40:17.645Z,42.80
2019-03-25T08:42:47.409Z,42.40
2019-03-25T08:45:17.610Z,41.50
2019-03-25T08:49:02.531Z,42.50
2019-03-25T08:51:33.516Z,41.30
2019-03-25T08:54:03.517Z,41.10
2019-03-25T08:56:34.096Z,40.10
2019-03-25T08:59:04.493Z,40.00
2019-03-25T09:01:34.512Z,40.00
2019-03-25T09:09:19.508Z,40.40
2019-03-25T09:11:51.418Z,40.90
2019-03-25T09:14:19.626Z,41.20
2019-03-25T09:16:50.526Z,40.40
2019-03-25T09:24:22.160Z,36.70
2019-03-25T09:26:51.683Z,36.30
2019-03-25T09:29:22.553Z,37.20
2019-03-25T09:31:51.666Z,37.00
2019-03-25T09:34:22.546Z,36.40
2019-03-25T09:36:53.501Z,37.90
2019-03-25T09:39:22.624Z,37.80
2019-03-25T09:41:53.548Z,34.20
2019-03-25T09:44:23.612Z,34.00
2019-03-25T09:46:54.459Z,34.40
2019-03-25T09:49:23.586Z,34.20
2019-03-25T09:51:53.916Z,30.40
2019-03-25T09:54:23.630Z,30.50
2019-03-25T09:56:53.586Z,30.00
2019-03-25T09:59:22.633Z,30.20
2019-03-25T10:01:53.475Z,30.10
2019-03-25T10:04:23.545Z,29.10
2019-03-25T10:06:54.524Z,27.40
2019-03-25T10:09:23.708Z,29.20
2019-03-25T10:11:54.532Z,28.70
2019-03-25T10:14:24.579Z,29.10
2019-03-25T10:16:55.538Z,26.80
2019-03-25T10:24:28.195Z,28.50
2019-03-25T10:35:30.555Z,27.40
2019-03-25T10:40:42.551Z,26.60
2019-03-25T10:43:12.932Z,26.60
2019-03-25T10:45:42.690Z,26.50
2019-03-25T10:48:13.578Z,25.90
2019-03-25T10:50:42.650Z,27.30
2019-03-25T10:53:13.460Z,26.30
2019-03-25T10:55:42.593Z,26.60
2019-03-25T10:58:13.470Z,27.10
2019-03-25T11:00:42.620Z,28.00
2019-03-25T11:03:13.502Z,27.50
2019-03-25T11:05:43.581Z,27.70
2019-03-25T11:08:13.509Z,29.10
2019-03-25T11:10:43.588Z,30.40
2019-03-25T11:13:14.598Z,30.60
2019-03-25T11:15:44.700Z,29.90
2019-03-25T11:18:15.495Z,30.10
2019-03-25T11:20:46.613Z,30.00
2019-03-25T11:26:06.467Z,30.00
2019-03-25T11:28:35.634Z,30.00
2019-03-25T11:31:06.579Z,29.20
2019-03-25T11:33:36.770Z,29.80
2019-03-25T11:36:07.543Z,30.40
2019-03-25T11:38:36.685Z,31.00
2019-03-25T11:41:09.180Z,30.10
2019-03-25T11:43:39.550Z,31.30
2019-03-25T11:46:09.613Z,31.60
2019-03-25T11:48:40.200Z,31.40
2019-03-25T11:51:09.776Z,33.30
2019-03-25T11:53:40.545Z,34.80
2019-03-25T12:01:10.668Z,34.30
2019-03-25T12:03:41.555Z,34.70
2019-03-25T12:06:11.638Z,34.30
2019-03-25T12:08:42.713Z,33.80
2019-03-25T12:11:13.548Z,34.60
2019-03-25T12:13:42.670Z,34.80
2019-03-25T12:16:13.535Z,35.70
2019-03-25T12:18:42.676Z,37.80
2019-03-25T12:21:15.487Z,39.00
2019-03-25T12:27:39.563Z,37.70
2019-03-25T12:30:09.645Z,37.70
2019-03-25T12:32:40.412Z,38.70
2019-03-25T12:35:11.479Z,39.80
2019-03-25T12:37:40.624Z,41.00
2019-03-25T12:40:12.469Z,42.30
2019-03-25T12:42:41.641Z,43.20
2019-03-25T12:45:13.231Z,43.40
2019-03-25T12:47:43.548Z,43.90
2019-03-25T12:50:14.491Z,43.30
2019-03-25T12:52:43.715Z,42.40
2019-03-25T12:55:15.149Z,41.80
2019-03-25T12:57:45.521Z,40.60
2019-03-25T13:00:20.573Z,39.20
2019-03-25T13:02:49.943Z,38.80
2019-03-25T13:05:21.524Z,39.20
2019-03-25T13:09:12.483Z,39.20
2019-03-25T13:11:42.470Z,38.40
2019-03-25T13:14:12.487Z,38.60
2019-03-25T13:16:42.472Z,39.10
2019-03-25T13:19:12.511Z,38.90
2019-03-25T13:21:43.610Z,39.40
2019-03-25T13:24:14.422Z,38.30
2019-03-25T13:26:43.571Z,38.50
2019-03-25T13:29:12.652Z,38.40
2019-03-25T13:31:43.518Z,37.40
2019-03-25T13:34:12.624Z,37.20
2019-03-25T13:36:43.446Z,36.10
2019-03-25T13:39:12.558Z,36.90
2019-03-25T13:41:41.657Z,35.80
2019-03-25T13:44:12.465Z,36.20
2019-03-25T13:46:41.576Z,34.60
2019-03-25T13:49:12.169Z,34.00
2019-03-25T13:51:41.556Z,35.40
2019-03-25T13:54:11.840Z,35.30
2019-03-25T13:56:41.554Z,35.40
2019-03-25T13:59:11.883Z,34.50
2019-03-25T14:01:42.467Z,34.50
2019-03-25T14:04:12.544Z,35.40
2019-03-25T14:13:18.480Z,38.20
2019-03-25T14:15:48.461Z,38.20
2019-03-25T14:18:18.455Z,38.80
2019-03-25T14:20:48.464Z,38.70
2019-03-25T14:23:20.427Z,38.80
2019-03-25T14:25:50.445Z,41.50
2019-03-25T14:28:20.412Z,44.30
2019-03-25T14:30:50.523Z,46.50
2019-03-25T14:33:20.429Z,47.70
2019-03-25T14:35:50.442Z,48.50
2019-03-25T14:38:20.432Z,49.90
2019-03-25T14:40:50.440Z,50.60
2019-03-25T14:43:21.361Z,51.00
2019-03-25T14:45:51.486Z,52.20
2019-03-25T14:48:21.405Z,53.20
2019-03-25T14:50:51.377Z,53.90
2019-03-25T14:53:21.394Z,54.40
2019-03-25T14:55:51.434Z,54.20
2019-03-25T14:58:21.432Z,53.70
2019-03-25T15:00:51.447Z,54.20
2019-03-25T15:03:21.425Z,54.40
2019-03-25T15:05:51.451Z,54.00
2019-03-25T15:08:21.526Z,53.80
2019-03-25T15:10:53.736Z,53.50
2019-03-25T15:22:41.455Z,54.70
2019-03-25T15:25:15.423Z,54.70
2019-03-25T15:27:45.510Z,54.70
2019-03-25T15:30:16.432Z,56.00
2019-03-25T15:32:45.540Z,56.50
2019-03-25T15:35:14.565Z,56.90
2019-03-25T15:37:45.451Z,57.70
2019-03-25T15:40:15.567Z,57.50
2019-03-25T15:42:45.548Z,56.80
2019-03-25T15:45:14.570Z,56.50
2019-03-25T15:47:47.261Z,55.80
2019-03-25T15:50:17.526Z,54.80
2019-03-25T15:52:48.273Z,54.10
2019-03-25T15:55:17.521Z,54.60
2019-03-25T15:57:48.346Z,54.20
2019-03-25T16:00:18.514Z,55.00
2019-03-25T16:02:48.417Z,53.90
2019-03-25T16:05:18.433Z,54.00
2019-03-25T16:07:48.427Z,53.80
2019-03-25T16:10:20.786Z,54.00
2019-03-25T16:12:52.312Z,54.70
2019-03-25T16:15:37.480Z,55.40
2019-03-25T16:18:07.548Z,54.80
2019-03-25T16:24:32.060Z,55.20
2019-03-25T17:26:03.467Z,62.60
2019-03-25T17:28:34.503Z,65.40
2019-03-25T17:31:03.741Z,65.00
2019-03-25T17:38:40.317Z,65.20
2019-03-25T18:34:37.405Z,63.40
2019-03-25T18:37:09.404Z,63.90
2019-03-25T18:39:39.397Z,63.30
2019-03-25T18:42:10.013Z,63.80
2019-03-25T18:44:40.386Z,64.70
2019-03-25T18:47:10.398Z,66.30
2019-03-25T18:49:40.397Z,66.40
2019-03-25T18:52:10.683Z,67.00
2019-03-25T18:54:41.392Z,66.90
2019-03-25T19:02:10.688Z,65.90
2019-03-25T19:04:41.373Z,67.40
2019-03-25T19:07:11.535Z,68.60
2019-03-25T19:09:41.449Z,68.20
2019-03-25T19:12:10.735Z,69.30
2019-03-25T19:14:41.363Z,69.40
2019-03-25T19:17:11.345Z,69.60
2019-03-25T19:19:41.362Z,69.10
2019-03-25T19:22:12.786Z,69.10
2019-03-25T19:24:43.395Z,68.70
2019-03-25T19:27:13.397Z,69.90
2019-03-25T19:29:43.512Z,69.50
2019-03-25T19:32:14.073Z,69.80
2019-03-25T19:34:43.500Z,70.20
2019-03-25T19:37:14.578Z,70.50
2019-03-25T19:39:45.358Z,69.20
2019-03-25T19:42:15.416Z,69.50
2019-03-25T19:44:46.004Z,69.50
2019-03-25T19:47:16.340Z,70.20
2019-03-25T19:49:46.376Z,71.00
2019-03-25T19:52:16.374Z,71.40
2019-03-25T19:54:47.363Z,71.50
2019-03-25T20:02:19.301Z,71.40
2019-03-25T20:04:48.326Z,72.40
2019-03-25T20:07:19.005Z,71.90
2019-03-25T20:09:49.392Z,72.20
2019-03-25T20:14:50.013Z,72.20
2019-03-25T20:17:19.449Z,72.40
2019-03-25T20:19:50.007Z,73.00
2019-03-25T20:22:20.365Z,73.50
2019-03-25T20:24:50.439Z,73.00
2019-03-25T20:27:21.142Z,72.20
2019-03-25T20:29:50.456Z,72.30
2019-03-25T20:32:31.272Z,72.20
2019-03-25T20:34:52.603Z,72.50
2019-03-25T20:37:25.456Z,72.00
2019-03-25T20:39:56.364Z,72.60
2019-03-25T20:42:26.428Z,72.50
2019-03-25T20:44:56.446Z,71.90
2019-03-25T20:47:25.603Z,72.60
2019-03-25T20:49:56.380Z,72.40
2019-03-25T20:52:25.675Z,73.20
2019-03-25T20:54:57.345Z,72.10
2019-03-25T21:00:04.357Z,72.30
2019-03-25T21:02:44.501Z,72.40
2019-03-25T21:05:07.353Z,71.50
2019-03-25T21:07:36.590Z,72.20
2019-03-25T21:10:07.485Z,71.90
2019-03-25T21:12:39.064Z,73.40
2019-03-25T21:15:10.391Z,73.90
2019-03-25T21:17:40.430Z,74.30
2019-03-25T21:20:11.381Z,74.20
2019-03-25T21:22:40.541Z,75.10
2019-03-25T21:25:11.350Z,75.10
2019-03-25T21:27:41.428Z,75.70
2019-03-25T21:30:10.478Z,75.90
2019-03-25T21:32:40.603Z,75.60
2019-03-25T21:35:11.518Z,76.90
2019-03-25T21:37:44.416Z,76.50
2019-03-25T21:40:14.408Z,76.50
2019-03-25T21:44:50.596Z,76.90
2019-03-25T21:47:21.438Z,77.80
2019-03-25T21:51:54.384Z,78.30
2019-03-25T21:54:23.608Z,78.40
2019-03-25T21:56:54.451Z,79.10
2019-03-25T21:59:24.416Z,79.70
2019-03-25T22:01:54.411Z,80.90
2019-03-25T22:04:24.506Z,80.60
2019-03-25T22:06:55.345Z,81.40
2019-03-25T22:09:24.559Z,82.00
2019-03-25T22:11:54.847Z,82.40
2019-03-25T22:14:26.767Z,82.00
2019-03-25T22:16:56.914Z,82.50
2019-03-25T22:19:27.914Z,81.40
2019-03-25T22:21:59.814Z,82.40
2019-03-25T22:24:29.915Z,82.40
2019-03-25T22:26:59.988Z,82.00
2019-03-25T22:29:31.966Z,82.60
2019-03-25T22:32:02.896Z,82.40
2019-03-25T22:34:34.800Z,83.40
2019-03-25T22:42:11.819Z,83.30
2019-03-25T22:44:42.902Z,85.30
2019-03-25T22:47:14.829Z,85.20
2019-03-25T22:54:46.779Z,83.10
2019-03-25T22:57:18.836Z,84.20
2019-03-25T22:59:49.153Z,83.70
2019-03-25T23:12:51.018Z,84.30
2019-03-25T23:15:21.668Z,84.40
2019-03-25T23:17:51.660Z,85.00
2019-03-25T23:20:22.647Z,84.60
2019-03-25T23:22:51.915Z,84.10
2019-03-25T23:25:22.668Z,83.90
2019-03-25T23:27:51.821Z,84.30
2019-03-25T23:30:22.658Z,83.50
2019-03-25T23:32:51.795Z,84.00
2019-03-25T23:35:22.657Z,83.50
2019-03-25T23:37:51.821Z,83.60
2019-03-25T23:40:24.668Z,83.00
2019-03-25T23:42:53.779Z,83.40
2019-03-25T23:45:24.655Z,83.10
2019-03-25T23:47:53.777Z,83.80
2019-03-25T23:50:24.650Z,83.60
2019-03-25T23:52:53.814Z,84.40
2019-03-25T23:55:24.618Z,84.20
2019-03-25T23:57:55.420Z,84.40
